Time;durP1;ratioP1;P1;durP2;ratioP2;P2;SDS_P1;SDS_P2;PMS_P1;PMS_P2;Temp;Humidity;BMP_temperature;BMP_pressure;BME280_temperature;BME280_humidity;BME280_pressure;Samples;Min_cycle;Max_cycle;Signal;HPM_P1;HPM_P2
2022/12/01 05:03:48;;;;;;;12.40;7.25;;;4.10;99.90;;;;;;5990728;23;20207;-68
2022/12/01 05:06:16;;;;;;;12.90;8.00;;;4.00;99.90;;;;;;4954509;29;20211;-67
2022/12/01 05:08:42;;;;;;;13.15;7.72;;;4.10;99.90;;;;;;4955693;29;20691;-67
2022/12/01 05:11:10;;;;;;;13.40;7.57;;;4.10;99.90;;;;;;4956087;29;20173;-68
2022/12/01 05:13:38;;;;;;;11.80;7.43;;;4.10;99.90;;;;;;4955461;28;20237;-67
2022/12/01 05:16:12;;;;;;;13.50;7.85;;;4.10;99.90;;;;;;4948277;29;20204;-67
2022/12/01 05:18:39;;;;;;;16.40;9.35;;;4.10;99.90;;;;;;4936511;29;20507;-68
2022/12/01 05:21:07;;;;;;;17.65;9.95;;;4.10;99.90;;;;;;4936483;29;20177;-66
2022/12/01 05:23:35;;;;;;;11.10;7.30;;;4.10;99.90;;;;;;4950450;29;20183;-68
2022/12/01 05:26:02;;;;;;;8.43;6.63;;;4.10;99.90;;;;;;4936355;29;20197;-67
2022/12/01 05:28:27;;;;;;;14.77;8.80;;;4.10;99.90;;;;;;4936190;29;20193;-67
2022/12/01 05:30:54;;;;;;;12.40;9.47;;;4.10;99.90;;;;;;4954026;29;20253;-67
2022/12/01 05:33:21;;;;;;;18.55;7.63;;;4.00;99.90;;;;;;4954490;28;20177;-67
2022/12/01 05:35:49;;;;;;;10.98;7.05;;;4.00;99.90;;;;;;4954853;29;20173;-68
2022/12/01 05:38:14;;;;;;;13.32;7.95;;;4.00;99.90;;;;;;4955251;28;20573;-68
2022/12/01 05:40:40;;;;;;;13.70;8.17;;;4.00;99.90;;;;;;4940229;29;20181;-68
2022/12/01 05:43:06;;;;;;;12.07;6.43;;;4.00;99.90;;;;;;4950608;29;20523;-67
2022/12/01 05:45:34;;;;;;;15.77;9.18;;;4.00;99.90;;;;;;4940140;29;20560;-68
2022/12/01 05:48:00;;;;;;;11.13;7.55;;;4.00;99.90;;;;;;4954589;29;20209;-68
2022/12/01 05:50:28;;;;;;;9.38;7.45;;;4.10;99.90;;;;;;4955108;29;20540;-67
2022/12/01 05:52:54;;;;;;;13.25;8.50;;;4.10;99.90;;;;;;4954903;29;20177;-68
2022/12/01 05:55:20;;;;;;;9.82;7.55;;;4.10;99.90;;;;;;4955129;28;20287;-67
2022/12/01 05:57:45;;;;;;;13.23;8.27;;;4.10;99.90;;;;;;4936213;29;20586;-67
2022/12/01 06:00:12;;;;;;;12.23;7.80;;;4.10;99.90;;;;;;4935828;29;20209;-67
2022/12/01 06:02:41;;;;;;;17.75;8.70;;;4.10;99.90;;;;;;4935506;29;20217;-69
2022/12/01 06:05:08;;;;;;;10.02;7.10;;;4.10;99.90;;;;;;4935667;29;20581;-67
2022/12/01 06:07:34;;;;;;;8.75;7.13;;;4.10;99.90;;;;;;4952551;29;20177;-67
2022/12/01 06:10:00;;;;;;;14.27;8.80;;;4.10;99.90;;;;;;4955034;29;20184;-66
2022/12/01 06:12:27;;;;;;;9.73;7.32;;;4.10;99.90;;;;;;4944856;29;20185;-66
2022/12/01 06:14:52;;;;;;;12.63;8.50;;;4.20;99.90;;;;;;4945939;28;20614;-68
2022/12/01 06:17:18;;;;;;;14.03;8.90;;;4.20;99.90;;;;;;4935661;29;20183;-67
2022/12/01 06:19:44;;;;;;;11.83;8.33;;;4.10;99.90;;;;;;4935537;29;20185;-69
2022/12/01 06:22:10;;;;;;;12.40;7.27;;;4.10;99.90;;;;;;4935797;29;20173;-67
2022/12/01 06:24:35;;;;;;;14.70;8.52;;;4.10;99.90;;;;;;4935336;29;20198;-67
2022/12/01 06:27:01;;;;;;;15.90;9.20;;;4.10;99.90;;;;;;4935833;29;20181;-68
2022/12/01 06:29:27;;;;;;;16.87;7.87;;;4.10;99.90;;;;;;4936425;29;20205;-65
2022/12/01 06:31:52;;;;;;;14.50;8.93;;;4.10;99.90;;;;;;4939359;29;20539;-68
2022/12/01 06:34:18;;;;;;;11.93;7.30;;;4.10;99.90;;;;;;4954408;28;20547;-66
2022/12/01 06:36:43;;;;;;;11.37;7.93;;;4.10;99.90;;;;;;4954989;29;20323;-66
2022/12/01 06:39:09;;;;;;;13.17;7.93;;;4.10;99.90;;;;;;4955003;29;20236;-66
2022/12/01 06:41:38;;;;;;;12.50;9.20;;;4.10;99.90;;;;;;4954725;29;20201;-68
2022/12/01 06:44:04;;;;;;;10.88;7.60;;;4.00;99.90;;;;;;4940531;29;20264;-67
2022/12/01 06:46:29;;;;;;;10.93;7.33;;;4.00;99.90;;;;;;4955074;29;20212;-66
2022/12/01 06:48:55;;;;;;;16.00;8.73;;;4.00;99.90;;;;;;4955656;28;20464;-67
2022/12/01 06:51:21;;;;;;;11.30;7.50;;;4.00;99.90;;;;;;4958040;29;20412;-66
2022/12/01 06:53:47;;;;;;;16.08;8.57;;;4.10;99.90;;;;;;4956045;28;20237;-66
2022/12/01 06:56:12;;;;;;;15.73;9.33;;;4.10;99.90;;;;;;4938656;29;20572;-68
2022/12/01 06:58:38;;;;;;;15.77;8.97;;;4.10;99.90;;;;;;4940116;29;20188;-68
2022/12/01 07:01:09;;;;;;;13.00;8.17;;;4.10;99.90;;;;;;4939618;29;20178;-65
2022/12/01 07:03:34;;;;;;;14.55;9.90;;;4.10;99.90;;;;;;4935026;28;20711;-65
2022/12/01 07:06:01;;;;;;;14.03;8.50;;;4.20;99.90;;;;;;4955047;29;20196;-64
2022/12/01 07:08:27;;;;;;;14.10;8.98;;;4.20;99.90;;;;;;4957752;29;20285;-64
2022/12/01 07:11:01;;;;;;;13.52;8.48;;;4.20;99.90;;;;;;4941772;29;20653;-65
2022/12/01 07:13:27;;;;;;;15.32;9.90;;;4.20;99.90;;;;;;4937691;29;20174;-64
2022/12/01 07:15:53;;;;;;;13.00;9.48;;;4.20;99.90;;;;;;4938528;29;20653;-65
2022/12/01 07:18:19;;;;;;;14.10;9.93;;;4.20;99.90;;;;;;4938583;29;20650;-65
2022/12/01 07:20:44;;;;;;;14.93;9.07;;;4.20;99.90;;;;;;4947123;29;20426;-65
2022/12/01 07:23:10;;;;;;;14.50;8.07;;;4.10;99.90;;;;;;4951813;29;20254;-65
2022/12/01 07:25:36;;;;;;;16.13;9.10;;;4.20;99.90;;;;;;4938229;29;20198;-66
2022/12/01 07:28:01;;;;;;;13.57;8.60;;;4.20;99.90;;;;;;4936362;29;20745;-64
2022/12/01 07:30:27;;;;;;;13.17;8.67;;;4.20;99.90;;;;;;4938330;29;20175;-64
2022/12/01 07:32:52;;;;;;;12.20;8.23;;;4.30;99.90;;;;;;4938509;29;20167;-65
2022/12/01 07:35:19;;;;;;;20.30;8.97;;;4.30;99.90;;;;;;4944872;28;20224;-65
2022/12/01 07:37:44;;;;;;;12.45;7.95;;;4.30;99.90;;;;;;4943343;29;20185;-65
2022/12/01 07:40:10;;;;;;;12.37;8.07;;;4.30;99.90;;;;;;4957166;29;20197;-65
2022/12/01 07:42:40;;;;;;;14.18;8.25;;;4.20;99.90;;;;;;4957210;29;20207;-64
2022/12/01 07:45:06;;;;;;;17.58;10.43;;;4.20;99.90;;;;;;4957016;28;20673;-66
2022/12/01 07:47:31;;;;;;;14.35;8.25;;;4.30;99.90;;;;;;4951564;29;20190;-64
2022/12/01 07:49:57;;;;;;;15.43;9.60;;;4.20;99.90;;;;;;4937758;29;20348;-64
2022/12/01 07:52:23;;;;;;;11.00;7.37;;;4.30;99.90;;;;;;4937432;29;20675;-64
2022/12/01 07:54:48;;;;;;;13.33;7.20;;;4.30;99.90;;;;;;4937401;29;20201;-65
2022/12/01 07:57:14;;;;;;;13.77;8.47;;;4.30;99.90;;;;;;4937574;29;20177;-66
2022/12/01 07:59:40;;;;;;;12.67;6.00;;;4.40;99.90;;;;;;4936372;29;20244;-65
2022/12/01 08:02:07;;;;;;;14.60;8.57;;;4.40;99.90;;;;;;4937143;29;20416;-66
2022/12/01 08:04:32;;;;;;;13.63;8.77;;;4.40;99.90;;;;;;4956298;28;20192;-65
2022/12/01 08:06:58;;;;;;;15.40;9.30;;;4.40;99.90;;;;;;4956365;29;20195;-65
2022/12/01 08:09:24;;;;;;;14.40;8.33;;;4.40;99.90;;;;;;4943759;29;20264;-65
2022/12/01 08:11:49;;;;;;;14.90;8.97;;;4.40;99.90;;;;;;4937616;29;20174;-64
2022/12/01 08:14:15;;;;;;;11.03;7.80;;;4.40;99.90;;;;;;4954643;28;20280;-64
2022/12/01 08:16:41;;;;;;;10.97;8.87;;;4.40;99.90;;;;;;4941756;29;20676;-65
2022/12/01 08:19:09;;;;;;;10.43;7.23;;;4.40;99.90;;;;;;4920387;29;20186;-65
2022/12/01 08:21:36;;;;;;;18.23;8.15;;;4.40;99.90;;;;;;4936933;29;20277;-65
2022/12/01 08:24:03;;;;;;;10.45;7.70;;;4.40;99.90;;;;;;4936856;29;20202;-65
2022/12/01 08:26:28;;;;;;;10.38;6.47;;;4.40;99.90;;;;;;4938430;29;20177;-66
2022/12/01 08:28:54;;;;;;;16.57;7.90;;;4.50;99.90;;;;;;4936908;29;20258;-65
2022/12/01 08:31:25;;;;;;;10.63;7.23;;;4.50;99.90;;;;;;4932259;29;20183;-66
2022/12/01 08:33:52;;;;;;;9.27;6.85;;;4.50;99.90;;;;;;4942841;29;20686;-65
2022/12/01 08:36:19;;;;;;;13.40;8.90;;;4.50;99.90;;;;;;4933653;29;20303;-66
2022/12/01 08:38:46;;;;;;;13.45;7.30;;;4.60;99.90;;;;;;4924422;29;20614;-65
2022/12/01 08:41:13;;;;;;;9.93;7.10;;;4.60;99.90;;;;;;4925912;29;20217;-66
2022/12/01 08:43:41;;;;;;;12.32;8.20;;;4.60;99.90;;;;;;4919893;29;20280;-65
2022/12/01 08:46:07;;;;;;;13.95;8.15;;;4.60;99.90;;;;;;4927885;29;20551;-64
2022/12/01 08:48:34;;;;;;;13.23;6.70;;;4.60;99.90;;;;;;4937590;29;20190;-66
2022/12/01 08:51:12;;;;;;;7.78;6.32;;;4.60;99.90;;;;;;4937000;29;20190;-66
2022/12/01 08:53:41;;;;;;;15.07;7.13;;;4.60;99.90;;;;;;4948012;28;20205;-65
2022/12/01 08:56:11;;;;;;;13.10;7.18;;;4.70;99.90;;;;;;4938164;29;20589;-64
2022/12/01 08:58:36;;;;;;;10.18;7.35;;;4.60;99.90;;;;;;4937142;29;20240;-64
2022/12/01 09:01:08;;;;;;;10.50;6.70;;;4.60;99.90;;;;;;4926389;29;20191;-66
2022/12/01 09:03:35;;;;;;;11.60;7.53;;;4.60;99.90;;;;;;4938087;29;20185;-65
2022/12/01 09:06:15;;;;;;;14.10;7.95;;;4.60;99.90;;;;;;4935857;29;20263;-66
2022/12/01 09:08:41;;;;;;;12.88;8.90;;;4.50;99.90;;;;;;4935334;29;20239;-65
2022/12/01 09:11:11;;;;;;;11.07;8.27;;;4.50;99.90;;;;;;4939035;29;20213;-65
2022/12/01 09:13:38;;;;;;;12.18;6.88;;;4.40;99.90;;;;;;4935726;29;20409;-65
2022/12/01 09:16:09;;;;;;;17.13;8.75;;;4.40;99.90;;;;;;4937809;29;20190;-65
2022/12/01 09:18:34;;;;;;;10.50;7.03;;;4.40;99.90;;;;;;4950633;29;20202;-65
2022/12/01 09:21:12;;;;;;;15.80;8.90;;;4.50;99.90;;;;;;4936125;29;20544;-65
2022/12/01 09:23:38;;;;;;;11.10;7.45;;;4.40;99.90;;;;;;4949778;28;20179;-65
2022/12/01 09:26:04;;;;;;;11.43;7.32;;;4.50;99.90;;;;;;4952723;29;20197;-65
2022/12/01 09:28:30;;;;;;;11.65;6.72;;;4.50;99.90;;;;;;4936540;29;20209;-65
2022/12/01 09:31:01;;;;;;;15.00;8.97;;;4.60;99.90;;;;;;4936259;29;20170;-66
2022/12/01 09:33:27;;;;;;;11.65;8.05;;;4.70;99.90;;;;;;4935823;29;20529;-65
2022/12/01 09:35:57;;;;;;;9.37;6.03;;;4.80;99.90;;;;;;4936406;29;20201;-65
2022/12/01 09:38:23;;;;;;;12.15;9.35;;;4.80;99.90;;;;;;4936310;29;20416;-65
2022/12/01 09:40:49;;;;;;;13.67;8.50;;;4.80;99.90;;;;;;4936139;29;20591;-65
2022/12/01 09:43:20;;;;;;;9.23;7.27;;;4.90;99.90;;;;;;4935983;29;20206;-65
2022/12/01 09:46:02;;;;;;;12.90;6.90;;;4.80;99.90;;;;;;4935817;29;20510;-65
2022/12/01 09:48:41;;;;;;;13.35;9.43;;;4.80;99.90;;;;;;4915954;29;20214;-65
2022/12/01 09:51:13;;;;;;;13.02;7.72;;;4.90;99.90;;;;;;4917214;29;20171;-64
2022/12/01 09:53:39;;;;;;;14.38;8.57;;;4.90;99.90;;;;;;4916567;29;20201;-65
2022/12/01 09:56:05;;;;;;;8.65;6.43;;;4.90;99.90;;;;;;4920874;29;20645;-64
2022/12/01 09:58:32;;;;;;;12.18;7.70;;;5.00;99.90;;;;;;4946163;29;20222;-64
2022/12/01 10:00:59;;;;;;;13.38;9.13;;;5.00;99.90;;;;;;4948151;29;20209;-65
2022/12/01 10:03:32;;;;;;;10.90;7.65;;;5.00;99.90;;;;;;4952444;29;20173;-66
2022/12/01 10:06:14;;;;;;;11.43;6.78;;;5.00;99.90;;;;;;4935826;29;20267;-64
2022/12/01 10:08:51;;;;;;;15.13;8.70;;;5.10;99.90;;;;;;4946712;29;20204;-67
2022/12/01 10:11:37;;;;;;;10.43;6.72;;;5.10;99.90;;;;;;4935249;29;20651;-66
2022/12/01 10:14:05;;;;;;;13.00;7.07;;;5.10;99.90;;;;;;4935192;29;20205;-67
2022/12/01 10:16:45;;;;;;;13.30;8.02;;;5.20;99.90;;;;;;4935341;29;20201;-66
2022/12/01 10:19:20;;;;;;;10.27;7.78;;;5.20;99.90;;;;;;4935850;29;20181;-67
2022/12/01 10:21:58;;;;;;;13.65;8.50;;;5.20;99.90;;;;;;4940736;29;20178;-67
2022/12/01 10:24:43;;;;;;;12.38;7.25;;;5.10;99.90;;;;;;4956595;28;20204;-66
2022/12/01 10:27:38;;;;;;;11.35;7.53;;;5.10;99.90;;;;;;4922562;29;20225;-68
2022/12/01 10:30:11;;;;;;;10.25;6.63;;;5.20;99.90;;;;;;4942112;29;20179;-68
2022/12/01 10:32:57;;;;;;;12.20;6.88;;;5.20;99.90;;;;;;4939153;29;20187;-67
2022/12/01 10:35:28;;;;;;;12.35;8.52;;;5.30;99.90;;;;;;4941880;29;20241;-68
2022/12/01 10:37:58;;;;;;;8.85;7.40;;;5.40;99.90;;;;;;4958379;29;20188;-68
2022/12/01 10:40:25;;;;;;;10.75;7.60;;;5.50;99.90;;;;;;4958529;29;20338;-67
2022/12/01 10:42:51;;;;;;;12.57;9.90;;;5.40;99.90;;;;;;4958071;29;20268;-69
2022/12/01 10:45:22;;;;;;;9.85;7.45;;;5.40;99.90;;;;;;4955011;28;20750;-70
2022/12/01 10:48:14;;;;;;;9.82;6.90;;;5.40;99.90;;;;;;4939259;29;20204;-70
2022/12/01 10:51:06;;;;;;;11.38;6.28;;;5.40;99.90;;;;;;4938829;29;20185;-70
2022/12/01 10:53:35;;;;;;;11.65;8.20;;;5.40;99.90;;;;;;4936456;29;20189;-70
2022/12/01 10:56:19;;;;;;;13.40;7.63;;;5.40;99.90;;;;;;4948895;29;20176;-72
2022/12/01 10:58:56;;;;;;;10.40;6.20;;;5.50;99.90;;;;;;4958365;29;20167;-69
2022/12/01 11:01:30;;;;;;;12.48;7.70;;;5.50;99.90;;;;;;4941494;29;20187;-70
2022/12/01 11:04:18;;;;;;;11.27;8.63;;;5.40;99.90;;;;;;4917278;29;20209;-69
2022/12/01 11:06:49;;;;;;;14.68;8.02;;;5.40;99.90;;;;;;4938404;29;20258;-70
2022/12/01 11:09:25;;;;;;;15.38;7.90;;;5.40;99.90;;;;;;4955155;29;20260;-71
2022/12/01 11:12:01;;;;;;;10.82;7.20;;;5.40;99.90;;;;;;4954676;29;20175;-70
2022/12/01 11:14:44;;;;;;;12.40;7.93;;;5.30;99.90;;;;;;4955966;28;20528;-69
2022/12/01 11:17:34;;;;;;;15.25;7.43;;;5.40;99.90;;;;;;4939504;29;20191;-70
2022/12/01 11:20:27;;;;;;;12.75;8.45;;;5.40;99.90;;;;;;4938438;29;20183;-68
2022/12/01 11:23:21;;;;;;;11.77;7.75;;;5.50;99.90;;;;;;4938122;29;20168;-70
2022/12/01 11:26:11;;;;;;;11.00;6.63;;;5.50;99.90;;;;;;4940976;29;20714;-71
2022/12/01 11:28:50;;;;;;;7.32;5.70;;;5.50;99.90;;;;;;4956875;29;20241;-72
2022/12/01 11:31:17;;;;;;;11.18;7.38;;;5.50;99.90;;;;;;4957442;29;20166;-70
2022/12/01 11:33:50;;;;;;;12.23;8.05;;;5.50;99.90;;;;;;4947427;29;20573;-70
2022/12/01 11:36:35;;;;;;;14.35;7.43;;;5.60;99.90;;;;;;4937910;29;20202;-70
2022/12/01 11:39:01;;;;;;;9.73;6.43;;;5.60;99.90;;;;;;4938331;29;20174;-70
2022/12/01 11:41:39;;;;;;;13.13;7.37;;;5.70;99.90;;;;;;4938210;29;20226;-72
2022/12/01 11:44:15;;;;;;;16.05;7.78;;;5.70;99.90;;;;;;4937772;29;20487;-70
2022/12/01 11:46:41;;;;;;;8.80;6.50;;;5.70;99.90;;;;;;4938567;29;20664;-71
2022/12/01 11:49:19;;;;;;;10.97;8.30;;;5.80;99.90;;;;;;4937913;29;20215;-71
2022/12/01 11:51:45;;;;;;;9.32;8.15;;;5.90;99.90;;;;;;4937988;29;20409;-71
2022/12/01 11:54:17;;;;;;;10.17;6.53;;;5.90;99.90;;;;;;4937557;29;20597;-70
2022/12/01 11:56:44;;;;;;;12.32;6.85;;;5.90;99.90;;;;;;4938279;29;20281;-70
2022/12/01 11:59:17;;;;;;;10.70;8.00;;;5.90;99.90;;;;;;4937939;29;20173;-68
2022/12/01 12:01:58;;;;;;;12.38;6.45;;;6.00;99.90;;;;;;4937990;29;20181;-69
2022/12/01 12:04:37;;;;;;;13.52;6.78;;;6.00;99.90;;;;;;4937000;29;20569;-68
2022/12/01 12:07:21;;;;;;;15.35;8.30;;;6.00;99.90;;;;;;4937759;29;20246;-68
2022/12/01 12:10:26;;;;;;;13.38;7.10;;;6.00;99.90;;;;;;4937973;29;20210;-69
2022/12/01 12:13:00;;;;;;;15.32;7.45;;;6.10;99.90;;;;;;4926005;29;20203;-67
2022/12/01 12:16:04;;;;;;;8.43;6.90;;;6.10;99.90;;;;;;4937529;29;20654;-68
2022/12/01 12:19:01;;;;;;;11.13;7.50;;;6.10;99.90;;;;;;4928552;29;20203;-69
2022/12/01 12:22:04;;;;;;;9.07;5.93;;;6.10;99.90;;;;;;4937707;29;20573;-66
2022/12/01 12:25:07;;;;;;;11.32;8.15;;;6.10;99.90;;;;;;4937236;29;20189;-66
2022/12/01 12:27:38;;;;;;;11.45;7.90;;;6.10;99.90;;;;;;4937184;29;20180;-68
2022/12/01 12:30:23;;;;;;;13.98;8.75;;;6.10;99.90;;;;;;4938250;29;20224;-66
2022/12/01 12:32:54;;;;;;;14.20;7.03;;;6.10;99.90;;;;;;4936875;29;20372;-67
2022/12/01 12:35:42;;;;;;;12.93;7.20;;;6.10;99.90;;;;;;4936992;29;20203;-65
2022/12/01 12:38:22;;;;;;;9.30;7.18;;;6.10;99.90;;;;;;4933494;29;20180;-69
2022/12/01 12:40:53;;;;;;;11.40;6.85;;;6.20;99.90;;;;;;4937554;29;20180;-68
2022/12/01 12:43:26;;;;;;;11.02;6.15;;;6.20;99.90;;;;;;4919817;29;20673;-66
2022/12/01 12:46:08;;;;;;;11.82;6.97;;;6.20;99.90;;;;;;4938579;29;20238;-67
2022/12/01 12:48:56;;;;;;;8.73;7.00;;;6.30;99.90;;;;;;4923108;29;20204;-67
2022/12/01 12:51:36;;;;;;;11.57;7.57;;;6.30;99.90;;;;;;4938235;29;20213;-66
2022/12/01 12:54:11;;;;;;;13.13;7.10;;;6.30;99.90;;;;;;4941184;29;20238;-67
2022/12/01 12:56:42;;;;;;;10.68;6.72;;;6.40;99.90;;;;;;4941323;29;20182;-68
2022/12/01 12:59:40;;;;;;;11.20;6.85;;;6.30;99.90;;;;;;4942161;29;20227;-68
2022/12/01 13:02:11;;;;;;;10.50;6.75;;;6.30;99.90;;;;;;4912426;29;20213;-68
2022/12/01 13:04:58;;;;;;;15.60;7.05;;;6.30;99.90;;;;;;4917855;29;20565;-67
2022/12/01 13:07:43;;;;;;;7.65;5.82;;;6.20;99.90;;;;;;4918074;29;20186;-67
2022/12/01 13:10:21;;;;;;;14.95;7.38;;;6.30;99.90;;;;;;4901058;29;20183;-68
2022/12/01 13:13:12;;;;;;;7.22;6.00;;;6.20;99.90;;;;;;4917570;29;20169;-69
2022/12/01 13:15:40;;;;;;;8.82;7.78;;;6.20;99.90;;;;;;4925417;29;20282;-66
2022/12/01 13:18:41;;;;;;;10.02;6.00;;;6.20;99.90;;;;;;4936703;29;20184;-68
2022/12/01 13:21:15;;;;;;;12.57;7.85;;;6.10;99.90;;;;;;4936544;29;20197;-68
2022/12/01 13:23:41;;;;;;;9.70;6.72;;;6.10;99.90;;;;;;4936032;29;20203;-70
2022/12/01 13:26:09;;;;;;;11.07;6.53;;;6.10;99.90;;;;;;4936731;29;20180;-70
2022/12/01 13:28:51;;;;;;;9.73;6.63;;;6.10;99.90;;;;;;4936274;29;20209;-70
2022/12/01 13:31:18;;;;;;;10.70;7.15;;;6.10;99.90;;;;;;4935350;29;20183;-68
2022/12/01 13:33:57;;;;;;;10.60;6.53;;;6.10;99.90;;;;;;4935775;29;20193;-69
2022/12/01 13:36:24;;;;;;;9.43;6.35;;;6.10;99.90;;;;;;4951518;28;20184;-71
2022/12/01 13:39:18;;;;;;;14.80;6.93;;;6.00;99.90;;;;;;4950924;29;20180;-69
2022/12/01 13:41:44;;;;;;;11.27;6.82;;;6.00;99.90;;;;;;4932404;29;20191;-70
2022/12/01 13:44:31;;;;;;;9.48;7.38;;;6.00;99.90;;;;;;4935605;29;20635;-69
2022/12/01 13:47:03;;;;;;;18.15;6.47;;;6.00;99.90;;;;;;4950118;29;20861;-69
2022/12/01 13:49:41;;;;;;;7.90;5.45;;;6.00;99.90;;;;;;4935224;29;20284;-70
2022/12/01 13:52:21;;;;;;;12.88;6.70;;;6.00;99.90;;;;;;4935722;29;20683;-69
2022/12/01 13:55:02;;;;;;;7.78;6.47;;;6.00;99.90;;;;;;4935689;29;20211;-68
2022/12/01 13:57:36;;;;;;;11.98;9.15;;;5.90;99.90;;;;;;4935491;29;20168;-68
2022/12/01 14:00:20;;;;;;;11.30;7.22;;;5.90;99.90;;;;;;4950356;29;20239;-70
2022/12/01 14:03:12;;;;;;;9.88;6.65;;;5.90;99.90;;;;;;4935689;29;20171;-69
2022/12/01 14:05:50;;;;;;;12.32;6.05;;;5.80;99.90;;;;;;4935524;29;20216;-70
2022/12/01 14:08:27;;;;;;;9.02;6.30;;;5.80;99.90;;;;;;4935963;29;20203;-70
2022/12/01 14:11:04;;;;;;;8.05;6.30;;;5.80;99.90;;;;;;4936162;29;20174;-70
2022/12/01 14:13:35;;;;;;;10.32;7.47;;;5.90;99.90;;;;;;4935630;29;20255;-70
2022/12/01 14:16:03;;;;;;;11.13;6.70;;;5.90;99.90;;;;;;4935419;29;20199;-69
2022/12/01 14:18:39;;;;;;;9.98;6.20;;;6.00;99.90;;;;;;4952815;28;20550;-65
2022/12/01 14:21:08;;;;;;;11.77;6.47;;;6.00;99.90;;;;;;4932116;29;20259;-67
2022/12/01 14:23:36;;;;;;;8.95;7.35;;;6.00;99.90;;;;;;4939002;28;20191;-69
2022/12/01 14:26:16;;;;;;;13.00;7.55;;;6.00;99.90;;;;;;4935662;29;20192;-67
2022/12/01 14:28:54;;;;;;;11.35;7.00;;;6.00;99.90;;;;;;4935648;29;20203;-67
2022/12/01 14:31:20;;;;;;;9.25;6.93;;;6.00;99.90;;;;;;4935891;29;20170;-69
2022/12/01 14:34:02;;;;;;;8.18;5.70;;;6.00;99.90;;;;;;4934913;29;20194;-68
2022/12/01 14:36:42;;;;;;;12.50;6.78;;;6.00;99.90;;;;;;4935630;29;20188;-72
2022/12/01 14:39:18;;;;;;;10.40;6.35;;;6.00;99.90;;;;;;4935656;29;20244;-68
2022/12/01 14:41:46;;;;;;;8.65;6.05;;;6.00;99.90;;;;;;4918230;29;20179;-68
2022/12/01 14:44:37;;;;;;;11.88;7.00;;;5.90;99.90;;;;;;4935402;29;20201;-69
2022/12/01 14:47:09;;;;;;;10.27;7.20;;;6.00;99.90;;;;;;4934378;29;20183;-69
2022/12/01 14:49:55;;;;;;;9.48;6.80;;;6.00;99.90;;;;;;4935320;29;20204;-71
2022/12/01 14:52:27;;;;;;;10.52;5.75;;;6.00;99.90;;;;;;4934034;29;20169;-69
2022/12/01 14:54:56;;;;;;;8.70;5.97;;;5.90;99.90;;;;;;4933235;29;20590;-70
2022/12/01 14:57:31;;;;;;;9.55;8.32;;;5.80;99.90;;;;;;4933363;29;20754;-67
2022/12/01 15:00:11;;;;;;;14.15;7.00;;;5.90;99.90;;;;;;4933414;29;20177;-69
2022/12/01 15:02:56;;;;;;;10.35;8.30;;;5.90;99.90;;;;;;4933382;29;20651;-71
2022/12/01 15:05:26;;;;;;;15.13;6.80;;;5.90;99.90;;;;;;4932979;29;20243;-70
2022/12/01 15:07:53;;;;;;;11.57;6.25;;;5.80;99.90;;;;;;4934666;29;20267;-70
2022/12/01 15:10:33;;;;;;;8.73;6.45;;;5.80;99.90;;;;;;4937140;29;20173;-68
2022/12/01 15:13:18;;;;;;;11.35;5.95;;;5.80;99.90;;;;;;4938294;29;20201;-70
2022/12/01 15:15:59;;;;;;;9.23;6.85;;;5.90;99.90;;;;;;4938353;29;20158;-71
2022/12/01 15:18:32;;;;;;;10.60;6.45;;;5.90;99.90;;;;;;4938200;29;20239;-69
2022/12/01 15:21:04;;;;;;;10.27;6.28;;;5.90;99.90;;;;;;4938325;29;20649;-70
2022/12/01 15:23:29;;;;;;;12.63;7.20;;;5.80;99.90;;;;;;4921158;29;20188;-70
2022/12/01 15:25:56;;;;;;;10.93;6.63;;;5.90;99.90;;;;;;4938663;29;20261;-70
2022/12/01 15:28:32;;;;;;;12.65;8.02;;;5.90;99.90;;;;;;4938084;29;20197;-70
2022/12/01 15:31:00;;;;;;;11.13;6.90;;;5.80;99.90;;;;;;4938123;29;20186;-70
2022/12/01 15:33:30;;;;;;;9.20;7.93;;;5.80;99.90;;;;;;4937674;29;20189;-70
2022/12/01 15:35:57;;;;;;;16.35;8.00;;;5.80;99.90;;;;;;4938427;29;20172;-70
2022/12/01 15:38:27;;;;;;;10.10;6.90;;;5.80;99.90;;;;;;4952652;29;20646;-69
2022/12/01 15:40:54;;;;;;;11.05;8.38;;;5.80;99.90;;;;;;4938357;29;20273;-68
2022/12/01 15:43:37;;;;;;;10.23;6.20;;;5.80;99.90;;;;;;4919800;29;20267;-70
2022/12/01 15:46:12;;;;;;;13.30;7.28;;;5.70;99.90;;;;;;4938409;29;20174;-69
2022/12/01 15:48:38;;;;;;;13.10;6.80;;;5.80;99.90;;;;;;4937571;29;20677;-68
2022/12/01 15:51:15;;;;;;;12.82;6.72;;;5.70;99.90;;;;;;4937996;29;20273;-69
2022/12/01 15:53:57;;;;;;;16.02;8.00;;;5.80;99.90;;;;;;4937622;29;20185;-72
2022/12/01 15:56:38;;;;;;;10.70;7.78;;;5.80;99.90;;;;;;4938146;29;20165;-71
2022/12/01 15:59:08;;;;;;;11.88;7.30;;;5.80;99.90;;;;;;4937946;29;20172;-71
2022/12/01 16:01:35;;;;;;;10.52;6.05;;;5.70;99.90;;;;;;4938101;29;20177;-71
2022/12/01 16:04:15;;;;;;;10.93;8.60;;;5.80;99.90;;;;;;4937138;29;20194;-72
2022/12/01 16:06:41;;;;;;;10.35;6.82;;;5.70;99.90;;;;;;4937782;29;20195;-72
2022/12/01 16:09:19;;;;;;;13.32;8.80;;;5.70;99.90;;;;;;4937379;29;20208;-71
2022/12/01 16:12:16;;;;;;;12.00;7.03;;;5.70;99.90;;;;;;4938177;29;20224;-71
2022/12/01 16:15:08;;;;;;;14.73;7.55;;;5.70;99.90;;;;;;4951896;29;20197;-71
2022/12/01 16:17:49;;;;;;;11.48;6.55;;;5.70;99.90;;;;;;4935892;29;20540;-71
2022/12/01 16:20:32;;;;;;;11.10;7.30;;;5.70;99.90;;;;;;4937834;29;20175;-71
2022/12/01 16:23:01;;;;;;;9.82;6.38;;;5.70;99.90;;;;;;4936597;29;20641;-72
2022/12/01 16:25:40;;;;;;;10.25;7.20;;;5.60;99.90;;;;;;4937416;29;20205;-72
2022/12/01 16:28:17;;;;;;;12.18;6.88;;;5.60;99.90;;;;;;4937431;29;20677;-71
2022/12/01 16:30:42;;;;;;;16.52;7.90;;;5.60;99.90;;;;;;4937481;29;20172;-70
2022/12/01 16:33:26;;;;;;;8.80;6.30;;;5.60;99.90;;;;;;4937153;29;20181;-70
2022/12/01 16:35:53;;;;;;;12.05;7.68;;;5.60;99.90;;;;;;4937811;29;20282;-71
2022/12/01 16:38:21;;;;;;;11.60;8.23;;;5.60;99.90;;;;;;4937002;29;20185;-70
2022/12/01 16:40:58;;;;;;;10.73;5.72;;;5.60;99.90;;;;;;4920508;29;20181;-71
2022/12/01 16:43:26;;;;;;;9.93;6.10;;;5.60;99.90;;;;;;4936748;29;20176;-69
2022/12/01 16:46:00;;;;;;;9.75;7.32;;;5.60;99.90;;;;;;4951945;29;20190;-72
2022/12/01 16:48:26;;;;;;;12.13;7.97;;;5.60;99.90;;;;;;4951773;28;20234;-71
2022/12/01 16:50:52;;;;;;;13.33;8.37;;;5.60;99.90;;;;;;4936952;29;20291;-71
2022/12/01 16:53:18;;;;;;;14.02;8.70;;;5.70;99.90;;;;;;4936630;29;20266;-70
2022/12/01 16:55:54;;;;;;;13.10;8.03;;;5.70;99.90;;;;;;4937179;29;20193;-71
2022/12/01 16:58:20;;;;;;;9.38;6.00;;;5.70;99.90;;;;;;4936965;29;20410;-70
2022/12/01 17:00:51;;;;;;;13.50;7.23;;;5.60;99.90;;;;;;4937162;29;20537;-71
2022/12/01 17:03:18;;;;;;;10.88;6.75;;;5.60;99.90;;;;;;4936862;29;20711;-72
2022/12/01 17:05:44;;;;;;;10.13;7.43;;;5.60;99.90;;;;;;4936733;29;20248;-71
2022/12/01 17:08:10;;;;;;;9.70;7.93;;;5.70;99.90;;;;;;4936592;29;20208;-74
2022/12/01 17:10:40;;;;;;;15.80;8.05;;;5.70;99.90;;;;;;4936888;29;20508;-69
2022/12/01 17:13:05;;;;;;;11.10;8.20;;;5.70;99.90;;;;;;4936438;29;20565;-71
2022/12/01 17:15:31;;;;;;;10.57;7.73;;;5.70;99.90;;;;;;4936623;29;20272;-70
2022/12/01 17:17:57;;;;;;;14.20;8.60;;;5.70;99.90;;;;;;4936781;29;20530;-70
2022/12/01 17:20:22;;;;;;;14.03;9.20;;;5.70;99.90;;;;;;4936739;29;20181;-69
2022/12/01 17:22:48;;;;;;;13.03;9.07;;;5.70;99.90;;;;;;4936088;29;20959;-71
2022/12/01 17:25:14;;;;;;;11.80;7.07;;;5.70;99.90;;;;;;4936519;29;20558;-70
2022/12/01 17:27:40;;;;;;;13.30;8.00;;;5.70;99.90;;;;;;4936919;29;20172;-69
2022/12/01 17:30:07;;;;;;;13.88;8.50;;;5.70;99.90;;;;;;4936714;29;20188;-70
2022/12/01 17:32:32;;;;;;;12.77;10.05;;;5.70;99.90;;;;;;4936214;29;20312;-71
2022/12/01 17:34:58;;;;;;;17.60;11.07;;;5.70;99.90;;;;;;4936364;29;20285;-69
2022/12/01 17:37:26;;;;;;;9.73;7.80;;;5.70;99.90;;;;;;4935876;29;20539;-71
2022/12/01 17:39:52;;;;;;;9.57;6.70;;;5.70;99.90;;;;;;4936395;29;20173;-71
2022/12/01 17:42:18;;;;;;;11.10;7.05;;;5.70;99.90;;;;;;4919362;29;20537;-69
2022/12/01 17:44:44;;;;;;;14.30;8.10;;;5.70;99.90;;;;;;4935773;29;20236;-72
2022/12/01 17:47:10;;;;;;;15.73;9.00;;;5.80;99.90;;;;;;4936252;29;20179;-71
2022/12/01 17:49:36;;;;;;;14.13;7.47;;;5.80;99.90;;;;;;4936128;29;20199;-70
2022/12/01 17:52:03;;;;;;;16.10;8.93;;;5.80;99.90;;;;;;4936187;29;20200;-68
2022/12/01 17:54:29;;;;;;;14.88;9.55;;;5.80;99.90;;;;;;4935439;29;20516;-70
2022/12/01 17:56:54;;;;;;;16.63;9.57;;;5.80;99.90;;;;;;4935773;29;20256;-68
2022/12/01 17:59:20;;;;;;;17.27;8.80;;;5.80;99.90;;;;;;4936375;29;20908;-67
2022/12/01 18:01:47;;;;;;;14.63;9.20;;;5.80;99.90;;;;;;4950723;29;20176;-68
2022/12/01 18:04:12;;;;;;;13.02;9.30;;;5.80;99.90;;;;;;4935530;29;20194;-69
2022/12/01 18:06:38;;;;;;;10.80;9.40;;;5.70;99.90;;;;;;4936028;29;20215;-71
2022/12/01 18:09:04;;;;;;;15.60;8.20;;;5.70;99.90;;;;;;4932645;29;20505;-69
2022/12/01 18:11:30;;;;;;;12.67;8.37;;;5.70;99.90;;;;;;4935890;29;20413;-68
2022/12/01 18:13:57;;;;;;;12.25;8.95;;;5.70;99.90;;;;;;4940549;28;20509;-68
2022/12/01 18:16:25;;;;;;;18.48;8.63;;;5.70;99.90;;;;;;4935949;29;20652;-71